Un Istanbul — TCVE4 — position and weather

sailwx.info

Track history (hours):
 
Tides and Currents Weather Stations Pressure Air Temp Water Temp Dewpoint Dewpoint Depression Visibility Wind Speed Wind Dir Waves Ship Positions

Un Istanbul

Last reported at 2018-Feb-17 09:57 UTC. Time now 2018-Feb-18 01:28 UTC.
Position N 44°34' E 013°34'.

Length 208 m; draft 6.6 m.

Type: Ship (hazmat cat A). MMSI: 271043303.

Date/timePositionNaut miles runAvg speedWind from/ knotsBaromVisibWave heightAir tempDewpointWater temp
2018-Feb-17 09:57N 44°34' E 013°34'919.7
2018-Feb-17 09:30N 44°42' E 013°29'1019.7
2018-Feb-17 09:00N 44°50' E 013°21'1019.5
2018-Feb-17 08:30N 44°58' E 013°14'1019.4
2018-Feb-17 08:00N 45°06' E 013°06'1019.1
2018-Feb-17 07:30N 45°15' E 013°02'917.5
2018-Feb-17 07:00N 45°24' E 013°04'1019.3
2018-Feb-17 06:30N 45°31' E 013°14'918.9
2018-Feb-17 06:00N 45°35' E 013°26'1019.4
2018-Feb-17 05:30N 45°39' E 013°39'5 9.1
2018-Feb-17 05:00N 45°39' E 013°45'0 0.0
2018-Feb-17 04:29N 45°39' E 013°45'0 0.0
2018-Feb-17 03:59N 45°39' E 013°45'0 0.0
2018-Feb-17 03:23N 45°39' E 013°45'0 0.0
2018-Feb-17 02:56N 45°39' E 013°45'0 0.0
2018-Feb-17 02:29N 45°39' E 013°45'0 0.0
2018-Feb-17 01:59N 45°39' E 013°45'0 0.0
2018-Feb-17 01:29N 45°39' E 013°45'0 0.0
2018-Feb-17 00:59N 45°39' E 013°45'0 0.0
2018-Feb-17 00:30N 45°39' E 013°45'0 0.0
2018-Feb-17 00:00N 45°39' E 013°45'0 0.0
2018-Feb-16 23:28N 45°39' E 013°45'0 0.0
2018-Feb-16 22:57N 45°39' E 013°45'0 0.0
2018-Feb-16 22:30N 45°39' E 013°45'0 0.0
2018-Feb-16 21:59N 45°39' E 013°45'0 0.0
2018-Feb-16 21:30N 45°39' E 013°45'0 0.0
2018-Feb-16 20:58N 45°39' E 013°45'0 0.0
2018-Feb-16 20:30N 45°39' E 013°45'0 0.0
2018-Feb-16 20:00N 45°39' E 013°45'0 0.0
2018-Feb-16 19:27N 45°39' E 013°45'0 0.0
2018-Feb-16 18:56N 45°39' E 013°45'0 0.0
2018-Feb-16 18:29N 45°39' E 013°45'0 0.0
2018-Feb-16 17:56N 45°39' E 013°45'0 0.0
2018-Feb-16 17:29N 45°39' E 013°45'1 1.8
2018-Feb-16 17:00N 45°39' E 013°44'511.1
2018-Feb-16 16:30N 45°37' E 013°37'1019.9
2018-Feb-16 16:00N 45°32' E 013°25'1020.0
2018-Feb-16 15:30N 45°25' E 013°14'918.5
2018-Feb-16 15:00N 45°16' E 013°13'1020.1
2018-Feb-16 14:30N 45°07' E 013°17'1020.0
2018-Feb-16 14:00N 44°57' E 013°23'1019.9
2018-Feb-16 13:30N 44°49' E 013°30'1219.7
2018-Feb-16 12:53N 44°38' E 013°39'36320.0
2018-Feb-15 18:41N 39°58' E 018°50'519.6
2018-Feb-15 18:27N 39°54' E 018°53'44812.2
2018-Feb-14 05:54N 40°53' E 028°36'5 1.0
2018-Feb-14 01:10N 40°56' E 028°41'0 1.7
2018-Feb-14 00:55N 40°56' E 028°41'2 1.6
2018-Feb-13 23:44N 40°56' E 028°43'415.3
2018-Feb-13 23:30N 40°53' E 028°47'917.9
2018-Feb-13 23:00N 40°49' E 028°58'1019.7
2018-Feb-13 22:30N 40°50' E 029°10'5 9.2
2018-Feb-13 22:00N 40°51' E 029°16'0 0.0
2018-Feb-13 21:27N 40°51' E 029°16'0 0.0
2018-Feb-13 20:51N 40°51' E 029°16'0 0.0
2018-Feb-13 20:21N 40°51' E 029°16'0 0.0
2018-Feb-13 19:57N 40°51' E 029°16'0 0.0
2018-Feb-13 19:27N 40°51' E 029°16'0 0.0
2018-Feb-13 18:57N 40°51' E 029°16'0 0.0
2018-Feb-13 18:27N 40°51' E 029°16'0 0.0
2018-Feb-13 17:57N 40°51' E 029°16'0 0.0
2018-Feb-13 17:27N 40°51' E 029°16'0 0.0
2018-Feb-13 16:57N 40°51' E 029°16'0 0.0
2018-Feb-13 16:27N 40°51' E 029°16'0 0.0
2018-Feb-13 15:57N 40°51' E 029°16'0 0.0
2018-Feb-13 15:27N 40°51' E 029°16'0 0.0
2018-Feb-13 14:51N 40°51' E 029°16'0 0.0
2018-Feb-13 14:27N 40°51' E 029°16'0 0.0
2018-Feb-13 13:51N 40°51' E 029°16'0 0.0
2018-Feb-13 13:27N 40°51' E 029°16'0 0.0
2018-Feb-13 12:57N 40°51' E 029°16'0 0.0
2018-Feb-13 12:27N 40°51' E 029°16'0 0.0
2018-Feb-13 11:57N 40°51' E 029°16'0 0.0
2018-Feb-13 11:27N 40°51' E 029°16'0 0.0
2018-Feb-13 10:57N 40°51' E 029°16'0 0.0
2018-Feb-13 10:27N 40°51' E 029°16'0 0.0
2018-Feb-13 09:57N 40°51' E 029°16'0 0.0
2018-Feb-13 09:27N 40°51' E 029°16'0 0.0
2018-Feb-13 08:57N 40°51' E 029°16'0 0.0
2018-Feb-13 08:27N 40°51' E 029°16'0 0.0
2018-Feb-13 07:57N 40°51' E 029°16'0 0.0
2018-Feb-13 07:27N 40°51' E 029°16'0 0.0
2018-Feb-13 06:57N 40°51' E 029°16'0 0.0
2018-Feb-13 06:27N 40°51' E 029°16'0 0.0
2018-Feb-13 05:57N 40°51' E 029°16'0 0.0
2018-Feb-13 05:21N 40°51' E 029°16'0 0.0
2018-Feb-13 04:57N 40°51' E 029°16'0 0.0
2018-Feb-13 04:27N 40°51' E 029°16'0 0.0
2018-Feb-13 03:57N 40°51' E 029°16'0 0.0
2018-Feb-13 03:21N 40°51' E 029°16'0 0.0
2018-Feb-13 02:57N 40°51' E 029°16'0 0.0
2018-Feb-13 02:27N 40°51' E 029°16'0 0.0
2018-Feb-13 01:57N 40°51' E 029°16'0 0.0
2018-Feb-13 01:27N 40°51' E 029°16'0 0.0
2018-Feb-13 00:57N 40°51' E 029°16'0 0.0
2018-Feb-13 00:21N 40°51' E 029°16'0 0.0
2018-Feb-12 23:57N 40°51' E 029°16'0 0.0
2018-Feb-12 23:27N 40°51' E 029°16'0 0.0
2018-Feb-12 22:57N 40°51' E 029°16'0 0.0
2018-Feb-12 22:27N 40°51' E 029°16'0 0.0
2018-Feb-12 21:57N 40°51' E 029°16'0 0.0
2018-Feb-12 21:27N 40°51' E 029°16'0 0.0
2018-Feb-12 20:51N 40°51' E 029°16'0 0.4
2018-Feb-12 20:31N 40°51' E 029°16'5 9.7
2018-Feb-12 20:00N 40°50' E 029°10'1018.8
2018-Feb-12 19:30N 40°49' E 028°57'46012.0
2018-Feb-11 05:08N 39°47' E 018°59'37219.6
2018-Feb-10 10:10N 44°33' E 013°38'319.8
2018-Feb-10 10:00N 44°35' E 013°35'1019.7
2018-Feb-10 09:31N 44°44' E 013°28'1019.9
2018-Feb-10 09:01N 44°52' E 013°20'1020.0
2018-Feb-10 08:31N 45°00' E 013°12'1019.7
2018-Feb-10 08:01N 45°09' E 013°05'1019.7
2018-Feb-10 07:31N 45°18' E 013°01'918.3
2018-Feb-10 07:01N 45°26' E 013°08'1019.6
2018-Feb-10 06:30N 45°33' E 013°18'1019.5
2018-Feb-10 06:01N 45°37' E 013°31'918.5
2018-Feb-10 05:30N 45°39' E 013°44'1 2.1
2018-Feb-10 05:01N 45°39' E 013°45'0 0.0
2018-Feb-10 04:26N 45°39' E 013°45'0 0.0
2018-Feb-10 03:59N 45°39' E 013°45'0 0.0
2018-Feb-10 03:29N 45°39' E 013°45'0 0.0
2018-Feb-10 02:59N 45°39' E 013°45'0 0.0
2018-Feb-10 02:28N 45°39' E 013°45'0 0.0
2018-Feb-10 02:00N 45°39' E 013°45'0 0.0
2018-Feb-10 01:29N 45°39' E 013°45'0 0.0
2018-Feb-10 01:00N 45°39' E 013°45'0 0.0
2018-Feb-10 00:28N 45°39' E 013°45'0 0.0
2018-Feb-10 00:00N 45°39' E 013°45'0 0.0
2018-Feb-09 23:29N 45°39' E 013°45'0 0.0
2018-Feb-09 22:59N 45°39' E 013°45'0 0.0
2018-Feb-09 22:44N 45°39' E 013°45'0 0.0
2018-Feb-09 19:00N 45°39' E 013°45'0 0.0
2018-Feb-09 18:30N 45°39' E 013°45'0 0.0
2018-Feb-09 18:00N 45°39' E 013°45'4 4.0
2018-Feb-09 17:01N 45°38' E 013°39'2718.0
2018-Feb-09 15:30N 45°18' E 013°13'1020.2
2018-Feb-09 15:01N 45°09' E 013°17'2019.9
2018-Feb-09 14:01N 44°50' E 013°29'64816.1
2018-Feb-07 21:49N 37°37' E 024°09'  
Track history (hours):
 
Tides and Currents Weather Stations Pressure Air Temp Water Temp Dewpoint Dewpoint Depression Visibility Wind Speed Wind Dir Waves Ship Positions

Un Istanbul

Last reported at 2018-Feb-17 09:57 UTC. Time now 2018-Feb-18 01:28 UTC.
Position N 44°34' E 013°34'.

Length 208 m; draft 6.6 m.

Type: Ship (hazmat cat A). MMSI: 271043303.

Date/timePositionNaut miles runAvg speedWind from/ knotsBaromVisibWave heightAir tempDewpointWater temp
2018-Feb-17 09:57N 44°34' E 013°34'919.7
2018-Feb-17 09:30N 44°42' E 013°29'1019.7
2018-Feb-17 09:00N 44°50' E 013°21'1019.5
2018-Feb-17 08:30N 44°58' E 013°14'1019.4
2018-Feb-17 08:00N 45°06' E 013°06'1019.1
2018-Feb-17 07:30N 45°15' E 013°02'917.5
2018-Feb-17 07:00N 45°24' E 013°04'1019.3
2018-Feb-17 06:30N 45°31' E 013°14'918.9
2018-Feb-17 06:00N 45°35' E 013°26'1019.4
2018-Feb-17 05:30N 45°39' E 013°39'5 9.1
2018-Feb-17 05:00N 45°39' E 013°45'0 0.0
2018-Feb-17 04:29N 45°39' E 013°45'0 0.0
2018-Feb-17 03:59N 45°39' E 013°45'0 0.0
2018-Feb-17 03:23N 45°39' E 013°45'0 0.0
2018-Feb-17 02:56N 45°39' E 013°45'0 0.0
2018-Feb-17 02:29N 45°39' E 013°45'0 0.0
2018-Feb-17 01:59N 45°39' E 013°45'0 0.0
2018-Feb-17 01:29N 45°39' E 013°45'0 0.0
2018-Feb-17 00:59N 45°39' E 013°45'0 0.0
2018-Feb-17 00:30N 45°39' E 013°45'0 0.0
2018-Feb-17 00:00N 45°39' E 013°45'0 0.0
2018-Feb-16 23:28N 45°39' E 013°45'0 0.0
2018-Feb-16 22:57N 45°39' E 013°45'0 0.0
2018-Feb-16 22:30N 45°39' E 013°45'0 0.0
2018-Feb-16 21:59N 45°39' E 013°45'0 0.0
2018-Feb-16 21:30N 45°39' E 013°45'0 0.0
2018-Feb-16 20:58N 45°39' E 013°45'0 0.0
2018-Feb-16 20:30N 45°39' E 013°45'0 0.0
2018-Feb-16 20:00N 45°39' E 013°45'0 0.0
2018-Feb-16 19:27N 45°39' E 013°45'0 0.0
2018-Feb-16 18:56N 45°39' E 013°45'0 0.0
2018-Feb-16 18:29N 45°39' E 013°45'0 0.0
2018-Feb-16 17:56N 45°39' E 013°45'0 0.0
2018-Feb-16 17:29N 45°39' E 013°45'1 1.8
2018-Feb-16 17:00N 45°39' E 013°44'511.1
2018-Feb-16 16:30N 45°37' E 013°37'1019.9
2018-Feb-16 16:00N 45°32' E 013°25'1020.0
2018-Feb-16 15:30N 45°25' E 013°14'918.5
2018-Feb-16 15:00N 45°16' E 013°13'1020.1
2018-Feb-16 14:30N 45°07' E 013°17'1020.0
2018-Feb-16 14:00N 44°57' E 013°23'1019.9
2018-Feb-16 13:30N 44°49' E 013°30'1219.7
2018-Feb-16 12:53N 44°38' E 013°39'36320.0
2018-Feb-15 18:41N 39°58' E 018°50'519.6
2018-Feb-15 18:27N 39°54' E 018°53'44812.2
2018-Feb-14 05:54N 40°53' E 028°36'5 1.0
2018-Feb-14 01:10N 40°56' E 028°41'0 1.7
2018-Feb-14 00:55N 40°56' E 028°41'2 1.6
2018-Feb-13 23:44N 40°56' E 028°43'415.3
2018-Feb-13 23:30N 40°53' E 028°47'917.9
2018-Feb-13 23:00N 40°49' E 028°58'1019.7
2018-Feb-13 22:30N 40°50' E 029°10'5 9.2
2018-Feb-13 22:00N 40°51' E 029°16'0 0.0
2018-Feb-13 21:27N 40°51' E 029°16'0 0.0
2018-Feb-13 20:51N 40°51' E 029°16'0 0.0
2018-Feb-13 20:21N 40°51' E 029°16'0 0.0
2018-Feb-13 19:57N 40°51' E 029°16'0 0.0
2018-Feb-13 19:27N 40°51' E 029°16'0 0.0
2018-Feb-13 18:57N 40°51' E 029°16'0 0.0
2018-Feb-13 18:27N 40°51' E 029°16'0 0.0
2018-Feb-13 17:57N 40°51' E 029°16'0 0.0
2018-Feb-13 17:27N 40°51' E 029°16'0 0.0
2018-Feb-13 16:57N 40°51' E 029°16'0 0.0
2018-Feb-13 16:27N 40°51' E 029°16'0 0.0
2018-Feb-13 15:57N 40°51' E 029°16'0 0.0
2018-Feb-13 15:27N 40°51' E 029°16'0 0.0
2018-Feb-13 14:51N 40°51' E 029°16'0 0.0
2018-Feb-13 14:27N 40°51' E 029°16'0 0.0
2018-Feb-13 13:51N 40°51' E 029°16'0 0.0
2018-Feb-13 13:27N 40°51' E 029°16'0 0.0
2018-Feb-13 12:57N 40°51' E 029°16'0 0.0
2018-Feb-13 12:27N 40°51' E 029°16'0 0.0
2018-Feb-13 11:57N 40°51' E 029°16'0 0.0
2018-Feb-13 11:27N 40°51' E 029°16'0 0.0
2018-Feb-13 10:57N 40°51' E 029°16'0 0.0
2018-Feb-13 10:27N 40°51' E 029°16'0 0.0
2018-Feb-13 09:57N 40°51' E 029°16'0 0.0
2018-Feb-13 09:27N 40°51' E 029°16'0 0.0
2018-Feb-13 08:57N 40°51' E 029°16'0 0.0
2018-Feb-13 08:27N 40°51' E 029°16'0 0.0
2018-Feb-13 07:57N 40°51' E 029°16'0 0.0
2018-Feb-13 07:27N 40°51' E 029°16'0 0.0
2018-Feb-13 06:57N 40°51' E 029°16'0 0.0
2018-Feb-13 06:27N 40°51' E 029°16'0 0.0
2018-Feb-13 05:57N 40°51' E 029°16'0 0.0
2018-Feb-13 05:21N 40°51' E 029°16'0 0.0
2018-Feb-13 04:57N 40°51' E 029°16'0 0.0
2018-Feb-13 04:27N 40°51' E 029°16'0 0.0
2018-Feb-13 03:57N 40°51' E 029°16'0 0.0
2018-Feb-13 03:21N 40°51' E 029°16'0 0.0
2018-Feb-13 02:57N 40°51' E 029°16'0 0.0
2018-Feb-13 02:27N 40°51' E 029°16'0 0.0
2018-Feb-13 01:57N 40°51' E 029°16'0 0.0
2018-Feb-13 01:27N 40°51' E 029°16'0 0.0
2018-Feb-13 00:57N 40°51' E 029°16'0 0.0
2018-Feb-13 00:21N 40°51' E 029°16'0 0.0
2018-Feb-12 23:57N 40°51' E 029°16'0 0.0
2018-Feb-12 23:27N 40°51' E 029°16'0 0.0
2018-Feb-12 22:57N 40°51' E 029°16'0 0.0
2018-Feb-12 22:27N 40°51' E 029°16'0 0.0
2018-Feb-12 21:57N 40°51' E 029°16'0 0.0
2018-Feb-12 21:27N 40°51' E 029°16'0 0.0
2018-Feb-12 20:51N 40°51' E 029°16'0 0.4
2018-Feb-12 20:31N 40°51' E 029°16'5 9.7
2018-Feb-12 20:00N 40°50' E 029°10'1018.8
2018-Feb-12 19:30N 40°49' E 028°57'46012.0
2018-Feb-11 05:08N 39°47' E 018°59'37219.6
2018-Feb-10 10:10N 44°33' E 013°38'319.8
2018-Feb-10 10:00N 44°35' E 013°35'1019.7
2018-Feb-10 09:31N 44°44' E 013°28'1019.9
2018-Feb-10 09:01N 44°52' E 013°20'1020.0
2018-Feb-10 08:31N 45°00' E 013°12'1019.7
2018-Feb-10 08:01N 45°09' E 013°05'1019.7
2018-Feb-10 07:31N 45°18' E 013°01'918.3
2018-Feb-10 07:01N 45°26' E 013°08'1019.6
2018-Feb-10 06:30N 45°33' E 013°18'1019.5
2018-Feb-10 06:01N 45°37' E 013°31'918.5
2018-Feb-10 05:30N 45°39' E 013°44'1 2.1
2018-Feb-10 05:01N 45°39' E 013°45'0 0.0
2018-Feb-10 04:26N 45°39' E 013°45'0 0.0
2018-Feb-10 03:59N 45°39' E 013°45'0 0.0
2018-Feb-10 03:29N 45°39' E 013°45'0 0.0
2018-Feb-10 02:59N 45°39' E 013°45'0 0.0
2018-Feb-10 02:28N 45°39' E 013°45'0 0.0
2018-Feb-10 02:00N 45°39' E 013°45'0 0.0
2018-Feb-10 01:29N 45°39' E 013°45'0 0.0
2018-Feb-10 01:00N 45°39' E 013°45'0 0.0
2018-Feb-10 00:28N 45°39' E 013°45'0 0.0
2018-Feb-10 00:00N 45°39' E 013°45'0 0.0
2018-Feb-09 23:29N 45°39' E 013°45'0 0.0
2018-Feb-09 22:59N 45°39' E 013°45'0 0.0
2018-Feb-09 22:44N 45°39' E 013°45'0 0.0
2018-Feb-09 19:00N 45°39' E 013°45'0 0.0
2018-Feb-09 18:30N 45°39' E 013°45'0 0.0
2018-Feb-09 18:00N 45°39' E 013°45'4 4.0
2018-Feb-09 17:01N 45°38' E 013°39'2718.0
2018-Feb-09 15:30N 45°18' E 013°13'1020.2
2018-Feb-09 15:01N 45°09' E 013°17'2019.9
2018-Feb-09 14:01N 44°50' E 013°29'64816.1
2018-Feb-07 21:49N 37°37' E 024°09'  

Dump ship's entire track history